Edmonton International Airport
CYEG : now visible

Airfield :











YOU CAN JOIN US ON...

 
LOGIN :

Register | Disclaimer

   EN    FR    IT 

 









Legend :    VFR   Marginal VFR   IFR   Intensive IFR   Very Intensive IFR
Visi :
Ceiling :
>= 8 km
>= 3000ft
5 to 8 km
1000 to 3000 ft
1500m to 5 km
500 to 1000 ft
800 to 1500m
200 to 500 ft
< 800m
< 200 ft
Symbols :   Thunderstorms  Fog  Heavy snow  Heavy precipitations  Wind > 20 kt






- Airport Elevation : 2373 ft
- IATA code : YEG


CYEG - Edmonton International

CURRENT METAR :
  • 290200Z 18006KT 20SM OVC210 01/M01 A2992 RMK CI8 SLP171

EXPIRED METARs :
  • 290142Z 17007KT 20SM FEW180 OVC220 02/M00 A2992 RMK AS2CI6 SLP168
  • 290100Z 17006KT 20SM BKN180 BKN240 03/M00 A2993 RMK AC7CI1 CI TR SLP169
  • 290000Z 16005KT 20SM FEW160 BKN240 01/M02 A2995 RMK AC1CI6 SLP177
  • 282338Z 16004KT 20SM FEW060 SCT160 BKN250 02/M01 A2995 RMK SC2AC1CI3 SLP179

TAF AMD TAF CYEG
Valid from the 29 at 00:00 until the 30 at 00:00 UTC


282356Z 2900/2924 VRB03KT P6SM SCT080 BKN160
TEMPO 2900/2906 BKN080 OVC160
FM290600 16008KT P6SM SCT008 BKN060
TEMPO 2906/2917 3SM -RA BR BKN008 OVC030
PROB30 2910/2915 3/4SM -RA BR
FM291700 32012KT P6SM BKN030
BECMG 2917/2919 SCT030 RMK NXT FCST BY 290300Z
CZEG FIR / North America



MET'MAP, your aeronautical weather chart ! - Copyright ORBIFLY December 2007 - Disclaimer

ORBIFLY MET'MAP TEAM :

Programming & Development : Alexandra Zaïnal
Concept & original design : Baudouin d'Aumeries
Assistance for programming : Marc-Olivier Méhu
Technical & hardware support : Manuel Goepfert

Contact : metmap@orbifly.com




SOURCES & CREDITS :

   NOAA       Earth
Advisory